Terminal Aerodrome Forecast
Issued by NWS

Home | Current Version | Previous Version | Text Only | Print | Product List | Glossary On
Versions: 1 2 3 4 5 6 7 8 9 10 11 12 13
000
FTUS44 KEPZ 300229 AAA
TAFDMN
TAF AMD
KDMN 300229Z 3002/3024 13010G20KT P6SM FEW025 SCT060 SCT120
     FM300300 14009KT P6SM VCTS SCT050CB BKN070 BKN120
      TEMPO 3003/3006 VRB15G25KT -TSRA BKN040CB BKN120
     FM300600 11010G20KT P6SM VCTS SCT050CB BKN120 OVC180
     FM301200 07010G20KT P6SM VCSH SCT050 BKN120 OVC180
     FM301900 16010KT P6SM SCT060 BKN120 BKN180=

USA.gov is the U.S. government's official web portal to all federal, state and local government web resources and services.